Time;durP1;ratioP1;P1;durP2;ratioP2;P2;SDS_P1;SDS_P2;PMS_P1;PMS_P2;Temp;Humidity;BMP_temperature;BMP_pressure;BME280_temperature;BME280_humidity;BME280_pressure;Samples;Min_cycle;Max_cycle;Signal;HPM_P1;HPM_P2
2023/10/07 00:00:56;;;;;;;3.67;1.15;;;;;;;16.86;68.58;100634.34;4999151;28;20802;-49
2023/10/07 00:03:23;;;;;;;5.68;3.03;;;;;;;16.85;68.74;100627.34;5033769;28;20691;-51
2023/10/07 00:05:50;;;;;;;5.75;1.83;;;;;;;16.85;68.77;100622.13;5006518;28;20050;-50
2023/10/07 00:08:21;;;;;;;6.10;1.70;;;;;;;16.83;69.01;100634.38;5000046;28;20112;-49
2023/10/07 00:10:49;;;;;;;6.40;1.65;;;;;;;16.83;68.47;100639.63;5010778;28;20422;-50
2023/10/07 00:13:20;;;;;;;6.10;1.65;;;;;;;16.83;68.42;100650.09;5041455;28;20045;-52
2023/10/07 00:15:51;;;;;;;9.93;2.13;;;;;;;16.81;68.63;100630.94;5010656;28;20136;-49
2023/10/07 00:18:19;;;;;;;4.38;2.00;;;;;;;16.78;68.65;100620.50;5008680;28;20069;-51
2023/10/07 00:20:49;;;;;;;7.57;1.85;;;;;;;16.78;69.11;100616.16;5038891;28;20050;-47
2023/10/07 00:23:18;;;;;;;9.55;2.65;;;;;;;16.76;68.97;100604.00;5009103;28;20045;-46
2023/10/07 00:25:49;;;;;;;4.38;1.88;;;;;;;16.76;68.98;100598.78;5009363;28;20049;-50
2023/10/07 00:28:18;;;;;;;2.90;1.67;;;;;;;16.76;68.39;100598.78;5008544;28;20057;-49
2023/10/07 00:30:46;;;;;;;11.32;2.67;;;;;;;16.76;68.91;100596.16;5005463;28;20053;-48
2023/10/07 00:33:14;;;;;;;6.22;2.00;;;;;;;16.75;69.07;100604.91;5008554;28;20160;-49
2023/10/07 00:35:42;;;;;;;7.68;2.05;;;;;;;16.73;68.58;100598.81;5006656;28;20049;-48
2023/10/07 00:38:14;;;;;;;4.13;1.73;;;;;;;16.72;68.76;100602.34;5004996;28;20562;-49
2023/10/07 00:40:53;;;;;;;5.75;1.92;;;;;;;16.66;68.43;100596.34;5005087;28;20052;-50
2023/10/07 00:43:26;;;;;;;4.68;1.75;;;;;;;16.68;68.60;100605.00;5007294;28;20125;-51
2023/10/07 00:46:06;;;;;;;5.93;1.75;;;;;;;16.69;68.47;100614.56;5007605;28;20050;-48
2023/10/07 00:48:45;;;;;;;6.03;1.73;;;;;;;16.68;68.54;100610.25;5002922;28;20124;-48
2023/10/07 00:51:12;;;;;;;5.18;1.92;;;;;;;16.69;68.47;100622.41;5000242;28;20054;-48
2023/10/07 00:53:45;;;;;;;5.63;1.88;;;;;;;16.67;68.65;100616.38;5012074;28;20065;-51
2023/10/07 00:56:14;;;;;;;4.20;1.58;;;;;;;16.67;68.92;100608.53;5009212;28;20088;-51
2023/10/07 00:58:42;;;;;;;5.70;2.65;;;;;;;16.66;68.58;100601.59;5005749;28;24098;-47
2023/10/07 01:01:10;;;;;;;6.13;1.83;;;;;;;16.68;68.70;100609.38;5006381;28;20077;-50
2023/10/07 01:03:55;;;;;;;6.63;2.17;;;;;;;16.67;68.71;100602.44;5001180;28;20495;-49
2023/10/07 01:06:25;;;;;;;6.85;1.73;;;;;;;16.67;68.33;100602.44;5009557;28;20057;-49
2023/10/07 01:09:10;;;;;;;3.88;1.50;;;;;;;16.67;69.10;100602.44;5005021;28;20069;-47
2023/10/07 01:11:40;;;;;;;3.80;2.03;;;;;;;16.66;68.94;100592.88;5002459;28;20144;-49
2023/10/07 01:14:10;;;;;;;5.40;1.60;;;;;;;16.64;68.35;100582.44;5002625;28;20145;-49
2023/10/07 01:16:42;;;;;;;6.57;1.50;;;;;;;16.64;68.77;100581.56;5004633;28;20044;-49
2023/10/07 01:21:54;;;;;;;5.78;1.67;;;;;;;16.63;68.89;100585.94;5035011;28;20410;-46
2023/10/07 01:30:06;;;;;;;5.18;2.72;;;;;;;16.57;68.58;100555.53;5138296;27;20376;-48
2023/10/07 01:32:33;;;;;;;4.50;2.10;;;;;;;16.57;68.68;100559.91;5118239;27;20047;-51
2023/10/07 01:35:10;;;;;;;4.10;1.30;;;;;;;16.55;68.75;100561.69;5121065;27;21951;-49
2023/10/07 01:37:42;;;;;;;5.40;2.63;;;;;;;16.52;68.57;100569.59;5120114;27;20082;-50
2023/10/07 01:40:15;;;;;;;5.05;2.85;;;;;;;16.52;69.24;100566.97;5110580;27;20047;-49
2023/10/07 01:42:46;;;;;;;5.30;2.67;;;;;;;16.51;68.69;100566.09;5120413;27;20039;-47
2023/10/07 01:45:20;;;;;;;5.18;1.83;;;;;;;16.51;68.58;100573.94;5119408;27;20233;-48
2023/10/07 01:47:53;;;;;;;4.75;3.28;;;;;;;16.51;69.23;100578.34;5118184;27;20055;-49
2023/10/07 01:50:21;;;;;;;8.30;3.20;;;;;;;16.47;69.44;100571.41;5131486;27;20499;-51
2023/10/07 01:52:48;;;;;;;4.55;2.50;;;;;;;16.51;68.82;100568.72;5122579;27;20547;-48
2023/10/07 01:55:16;;;;;;;5.80;3.03;;;;;;;16.49;68.67;100564.41;5111285;27;20331;-47
2023/10/07 01:57:45;;;;;;;5.15;1.67;;;;;;;16.52;69.15;100577.44;5117524;27;20462;-47
2023/10/07 02:00:13;;;;;;;7.25;3.10;;;;;;;16.51;68.83;100570.50;5116631;27;20043;-50
2023/10/07 02:02:48;;;;;;;;;;;;;;;16.35;69.02;100570.75;5115646;27;20059;-48
2023/10/07 02:05:16;;;;;;;4.57;3.03;;;;;;;16.47;68.80;100558.34;5113364;27;19967;-49
2023/10/07 02:07:43;;;;;;;6.78;1.98;;;;;;;16.46;68.97;100567.97;5115338;27;20444;-48
2023/10/07 02:10:19;;;;;;;5.50;2.67;;;;;;;16.47;69.20;100576.66;5115927;27;20054;-45
2023/10/07 02:12:46;;;;;;;5.22;2.30;;;;;;;16.45;69.07;100572.31;5116389;27;20051;-48
2023/10/07 02:15:19;;;;;;;6.53;2.85;;;;;;;16.48;69.44;100575.78;5120971;27;20108;-48
2023/10/07 02:17:47;;;;;;;6.40;3.13;;;;;;;16.47;69.55;100568.81;5108559;27;20057;-46
2023/10/07 02:20:22;;;;;;;9.13;3.20;;;;;;;16.47;68.86;100560.97;5117611;27;20043;-47
2023/10/07 02:22:50;;;;;;;5.20;2.95;;;;;;;16.44;69.45;100549.69;5113075;27;20047;-45
2023/10/07 02:25:26;;;;;;;6.38;2.92;;;;;;;16.45;68.95;100547.94;5118178;27;20048;-49
2023/10/07 02:27:54;;;;;;;9.05;4.85;;;;;;;16.43;69.50;100555.81;5118685;27;20055;-46
2023/10/07 02:30:24;;;;;;;7.15;3.78;;;;;;;16.43;69.56;100536.63;5106630;27;20047;-47
2023/10/07 02:32:52;;;;;;;4.57;1.95;;;;;;;16.40;69.16;100541.91;5114344;27;20428;-47
2023/10/07 02:35:19;;;;;;;7.28;2.95;;;;;;;16.42;68.96;100550.63;5121462;27;20101;-50
2023/10/07 02:37:50;;;;;;;7.43;3.42;;;;;;;16.41;69.85;100560.19;5113847;27;20082;-50
2023/10/07 02:40:35;;;;;;;8.18;3.15;;;;;;;16.40;69.38;100557.59;5110781;27;20042;-49
2023/10/07 02:43:07;;;;;;;8.13;3.58;;;;;;;16.39;69.38;100555.91;5102219;28;20043;-52
2023/10/07 02:45:43;;;;;;;5.50;2.22;;;;;;;16.35;69.90;100552.47;5095240;28;20464;-48
2023/10/07 02:48:11;;;;;;;5.18;3.08;;;;;;;16.38;69.23;100555.03;5103731;28;20051;-47
2023/10/07 02:50:46;;;;;;;5.32;3.22;;;;;;;16.38;70.21;100555.03;5101802;28;20048;-49
2023/10/07 02:53:14;;;;;;;6.03;3.60;;;;;;;16.36;70.15;100559.44;5104513;28;20043;-48
2023/10/07 02:58:41;;;;;;;7.15;3.05;;;;;;;16.35;70.25;100565.53;5099506;28;20088;-47
2023/10/07 03:01:12;;;;;;;9.18;3.20;;;;;;;16.35;69.99;100560.31;5100813;28;20040;-47
2023/10/07 03:03:41;;;;;;;7.63;2.75;;;;;;;16.32;69.39;100549.94;5099381;28;20602;-47
2023/10/07 03:06:08;;;;;;;8.85;3.20;;;;;;;16.32;70.34;100555.16;5098032;28;20050;-48
2023/10/07 03:08:40;;;;;;;7.35;3.33;;;;;;;16.32;70.31;100555.16;5104835;28;20488;-50
2023/10/07 03:11:12;;;;;;;7.95;3.40;;;;;;;16.29;69.77;100547.38;5085829;27;20042;-47
2023/10/07 03:13:40;;;;;;;7.43;3.10;;;;;;;16.30;70.10;100541.25;5097510;28;20058;-51
2023/10/07 03:24:15;;;;;;;5.95;2.03;;;;;;;16.29;70.95;100516.88;5027513;28;20403;-57
2023/10/07 03:26:45;;;;;;;7.57;1.98;;;;;;;16.28;70.82;100516.91;5000056;28;20042;-49
2023/10/07 03:29:29;;;;;;;5.30;2.05;;;;;;;16.25;70.85;100516.94;5002334;28;20042;-51
2023/10/07 03:31:55;;;;;;;8.45;2.03;;;;;;;16.21;70.84;100515.28;5000499;28;20054;-50
2023/10/07 03:34:24;;;;;;;5.13;2.22;;;;;;;16.20;70.58;100514.41;4996236;28;20411;-50
2023/10/07 03:42:24;;;;;;;6.85;2.13;;;;;;;16.11;71.09;100520.66;4997571;28;20122;-49
2023/10/07 03:44:51;;;;;;;6.93;2.22;;;;;;;16.05;71.16;100508.56;5002035;28;20038;-45
2023/10/07 03:47:18;;;;;;;6.38;1.80;;;;;;;16.10;71.16;100508.50;5001983;28;20057;-51
2023/10/07 03:49:52;;;;;;;4.78;2.55;;;;;;;16.08;71.56;100506.81;5001633;28;20499;-50
2023/10/07 03:52:20;;;;;;;4.10;1.52;;;;;;;16.05;71.42;100500.72;4999889;28;20042;-47
2023/10/07 03:54:48;;;;;;;13.60;2.40;;;;;;;16.04;71.24;100498.16;5000996;28;20482;-51
2023/10/07 03:57:15;;;;;;;8.73;2.92;;;;;;;16.02;71.26;100500.81;5001045;28;20061;-46
2023/10/07 03:59:42;;;;;;;7.05;3.08;;;;;;;16.00;71.35;100507.81;5002152;28;20085;-51
2023/10/07 04:05:00;;;;;;;6.72;2.10;;;;;;;15.94;71.27;100513.97;4998776;28;20046;-50
2023/10/07 04:07:29;;;;;;;8.23;2.83;;;;;;;15.91;72.05;100514.00;5000511;28;20132;-47
2023/10/07 04:10:13;;;;;;;7.63;2.13;;;;;;;15.89;72.12;100515.81;5002370;28;20141;-50
2023/10/07 04:12:40;;;;;;;7.65;2.58;;;;;;;15.87;71.79;100522.78;4999696;28;20049;-46
2023/10/07 04:15:12;;;;;;;11.48;2.70;;;;;;;15.84;71.89;100515.00;5009941;28;20050;-50
2023/10/07 04:17:38;;;;;;;9.23;2.92;;;;;;;15.83;71.35;100510.69;4998372;28;20123;-47
2023/10/07 04:20:24;;;;;;;12.50;2.65;;;;;;;15.81;71.74;100502.03;4996556;28;20104;-48
2023/10/07 04:23:00;;;;;;;5.68;2.25;;;;;;;15.77;71.84;100508.19;4996660;28;20736;-49
2023/10/07 04:25:29;;;;;;;6.82;2.60;;;;;;;15.76;72.19;100514.28;4996440;28;20046;-48
2023/10/07 04:27:57;;;;;;;6.80;3.25;;;;;;;15.76;72.09;100514.28;5003361;28;20066;-47
2023/10/07 04:30:29;;;;;;;8.82;2.70;;;;;;;15.75;72.26;100512.56;4997546;28;20574;-47
2023/10/07 04:33:00;;;;;;;7.75;2.72;;;;;;;15.74;72.27;100510.84;4997751;28;20054;-48
2023/10/07 04:35:32;;;;;;;9.20;3.25;;;;;;;15.73;72.15;100503.88;4986873;28;20446;-45
2023/10/07 04:38:09;;;;;;;7.88;2.88;;;;;;;15.72;72.20;100507.38;4985849;28;20078;-50
2023/10/07 04:43:36;;;;;;;7.82;3.63;;;;;;;15.66;71.86;100514.44;4987275;28;20420;-48
2023/10/07 04:46:20;;;;;;;5.35;2.67;;;;;;;15.65;72.65;100528.41;4986640;28;20403;-50
2023/10/07 04:51:46;;;;;;;7.07;2.80;;;;;;;15.61;72.90;100531.94;4984505;28;20097;-48
2023/10/07 04:54:21;;;;;;;8.85;3.20;;;;;;;15.59;72.45;100533.69;4983850;28;20094;-46
2023/10/07 04:57:00;;;;;;;5.82;2.70;;;;;;;15.59;72.47;100543.28;4986883;28;20050;-51
2023/10/07 04:59:28;;;;;;;8.77;2.80;;;;;;;15.58;72.86;100542.44;4984278;28;20054;-49
2023/10/07 05:02:01;;;;;;;10.25;3.15;;;;;;;15.57;73.40;100545.06;4984012;28;20047;-50
2023/10/07 05:04:28;;;;;;;5.88;3.33;;;;;;;15.55;72.79;100547.69;4985315;28;20058;-47
2023/10/07 05:06:55;;;;;;;5.63;3.63;;;;;;;15.55;72.93;100553.78;4985793;28;20764;-48
2023/10/07 05:09:23;;;;;;;5.75;3.70;;;;;;;15.53;73.26;100555.53;4984636;28;20042;-47
2023/10/07 05:11:49;;;;;;;8.55;3.45;;;;;;;15.53;73.15;100557.28;4987576;28;20133;-47
2023/10/07 05:14:17;;;;;;;10.82;2.90;;;;;;;15.51;72.73;100553.84;4983648;28;20046;-48
2023/10/07 05:16:46;;;;;;;8.88;3.00;;;;;;;15.50;73.65;100549.53;4998796;28;20046;-48
2023/10/07 05:19:19;;;;;;;10.73;3.53;;;;;;;15.48;72.61;100543.44;4985929;28;20053;-48
2023/10/07 05:21:58;;;;;;;5.38;2.65;;;;;;;15.47;72.87;100549.56;4980629;28;20574;-51
2023/10/07 05:24:30;;;;;;;9.77;3.33;;;;;;;15.43;73.71;100564.38;4982374;28;20069;-46
2023/10/07 05:26:59;;;;;;;8.88;3.83;;;;;;;15.41;73.76;100567.03;4996766;28;20122;-47
2023/10/07 05:29:28;;;;;;;9.88;3.35;;;;;;;15.39;73.35;100574.03;4987518;28;20105;-50
2023/10/07 05:31:56;;;;;;;9.60;3.33;;;;;;;15.36;73.51;100563.63;4978520;28;20367;-50
2023/10/07 05:34:33;;;;;;;9.38;3.22;;;;;;;15.37;73.17;100575.78;5002257;28;20054;-49
2023/10/07 05:37:10;;;;;;;10.40;3.80;;;;;;;15.35;73.70;100566.25;4997574;28;20047;-47
2023/10/07 05:39:41;;;;;;;13.20;3.60;;;;;;;15.33;73.58;100563.66;4999263;28;20062;-49
2023/10/07 05:42:11;;;;;;;10.13;4.13;;;;;;;15.31;73.24;100555.00;4982512;28;20053;-47
2023/10/07 05:44:39;;;;;;;7.35;3.63;;;;;;;15.31;73.37;100555.00;4999393;28;20121;-49
2023/10/07 05:47:08;;;;;;;12.00;3.50;;;;;;;15.30;73.82;100568.91;4984693;28;20052;-51
2023/10/07 05:49:37;;;;;;;9.80;3.63;;;;;;;15.30;73.69;100571.53;4982404;28;20129;-45
2023/10/07 05:52:05;;;;;;;10.32;3.63;;;;;;;15.28;73.72;100568.97;4964409;28;20077;-46
2023/10/07 05:54:32;;;;;;;12.25;3.50;;;;;;;15.27;74.36;100569.00;4993273;28;20054;-47
2023/10/07 05:56:59;;;;;;;9.40;3.85;;;;;;;15.28;73.96;100560.25;4982576;28;20053;-48
2023/10/07 05:59:33;;;;;;;14.45;3.92;;;;;;;15.26;74.32;100556.81;4985013;28;20498;-52
2023/10/07 06:02:05;;;;;;;14.23;4.03;;;;;;;15.26;74.24;100562.03;4977717;28;20082;-49
2023/10/07 06:04:33;;;;;;;8.75;4.10;;;;;;;15.26;73.99;100569.84;4986820;28;20066;-49
2023/10/07 06:07:00;;;;;;;10.30;4.07;;;;;;;15.26;73.81;100564.63;4980048;28;20054;-50
2023/10/07 06:09:28;;;;;;;9.75;4.32;;;;;;;15.26;73.97;100572.47;4979415;28;20051;-49
2023/10/07 06:11:59;;;;;;;10.43;4.15;;;;;;;15.25;73.90;100570.75;4978828;28;20054;-52
2023/10/07 06:14:26;;;;;;;11.23;5.57;;;;;;;15.26;73.91;100556.81;4979610;28;20497;-52
2023/10/07 06:16:53;;;;;;;13.40;3.92;;;;;;;15.25;74.15;100560.31;4980591;28;20526;-47
2023/10/07 06:19:23;;;;;;;10.25;4.00;;;;;;;15.25;74.35;100560.31;4977990;28;20109;-46
2023/10/07 06:21:56;;;;;;;7.93;3.88;;;;;;;15.23;74.04;100569.91;4990769;28;20053;-49
2023/10/07 06:24:24;;;;;;;8.35;3.88;;;;;;;15.23;74.38;100578.59;4975145;28;20613;-47
2023/10/07 06:26:53;;;;;;;9.02;3.65;;;;;;;15.23;74.54;100575.13;4974504;28;20105;-48
2023/10/07 06:29:20;;;;;;;11.32;4.13;;;;;;;15.24;74.15;100580.34;4983651;28;20066;-49
2023/10/07 06:31:55;;;;;;;13.93;4.70;;;;;;;15.25;74.21;100573.34;4974971;28;20419;-49
2023/10/07 06:34:25;;;;;;;11.57;4.30;;;;;;;15.26;74.29;100577.69;4974021;28;20550;-50
2023/10/07 06:36:52;;;;;;;;;;;;;;;15.11;74.00;100574.41;4979587;28;20134;-50
2023/10/07 06:39:27;;;;;;;10.18;3.50;;;;;;;15.25;73.83;100586.41;4975628;28;19926;-49
2023/10/07 06:41:56;;;;;;;11.90;4.80;;;;;;;15.28;73.79;100576.81;4973275;28;20684;-47
2023/10/07 06:44:24;;;;;;;9.35;4.28;;;;;;;15.30;73.85;100579.34;4993213;28;20065;-51
2023/10/07 06:46:56;;;;;;;14.48;4.53;;;;;;;15.34;74.28;100580.19;4978650;28;20050;-50
2023/10/07 06:49:23;;;;;;;8.23;3.60;;;;;;;15.35;74.00;100572.34;4974081;28;20952;-47
2023/10/07 06:51:54;;;;;;;9.68;4.70;;;;;;;15.37;74.16;100572.31;4975513;28;20087;-51
2023/10/07 06:54:23;;;;;;;10.50;3.97;;;;;;;15.39;74.81;100579.25;4976915;28;20051;-50
2023/10/07 06:56:54;;;;;;;10.27;3.72;;;;;;;15.41;74.32;100579.22;4972082;28;20074;-51
2023/10/07 06:59:27;;;;;;;7.93;4.22;;;;;;;15.43;74.74;100577.44;4994504;28;20126;-52
2023/10/07 07:01:55;;;;;;;10.27;4.10;;;;;;;15.45;74.56;100577.41;4975863;28;20058;-49
2023/10/07 07:04:23;;;;;;;9.57;4.32;;;;;;;15.48;74.45;100572.16;4990198;28;20740;-49
2023/10/07 07:09:41;;;;;;;10.55;4.38;;;;;;;15.52;74.31;100585.16;4969589;28;20054;-50
2023/10/07 07:12:09;;;;;;;8.48;4.03;;;;;;;15.55;74.33;100594.69;4974288;28;20057;-49
2023/10/07 07:14:37;;;;;;;9.30;4.53;;;;;;;15.58;74.67;100589.44;4987411;28;20104;-49
2023/10/07 07:22:46;;;;;;;11.70;6.32;;;;;;;15.67;74.90;100599.72;5063664;28;20126;-48
2023/10/07 07:25:23;;;;;;;13.02;7.07;;;;;;;15.72;74.04;100596.16;5039879;28;20496;-49
2023/10/07 07:27:50;;;;;;;;;;;;;;;15.62;74.85;100582.41;5035758;28;20145;-50
2023/10/07 07:30:19;;;;;;;9.82;7.28;;;;;;;15.75;73.96;100585.69;5039852;28;19955;-48
2023/10/07 07:32:55;;;;;;;12.63;6.82;;;;;;;15.81;74.40;100586.44;5043408;28;20053;-49
2023/10/07 07:35:37;;;;;;;11.32;5.75;;;;;;;15.80;74.79;100584.72;5042706;28;20037;-50
2023/10/07 07:38:17;;;;;;;11.18;6.55;;;;;;;15.86;74.35;100575.94;5016119;28;20061;-49
2023/10/07 07:40:49;;;;;;;11.10;5.75;;;;;;;15.89;73.83;100578.50;5041057;28;20502;-50
2023/10/07 07:43:19;;;;;;;10.57;5.47;;;;;;;15.94;74.31;100597.56;5042649;28;20076;-48
2023/10/07 07:45:46;;;;;;;10.05;5.65;;;;;;;15.98;74.56;100592.31;5045768;28;20059;-47
2023/10/07 07:48:14;;;;;;;8.98;3.97;;;;;;;16.05;73.77;100601.78;5038388;28;20453;-48
2023/10/07 07:50:41;;;;;;;10.55;4.82;;;;;;;16.08;74.17;100606.97;5039380;28;20585;-48
2023/10/07 07:53:09;;;;;;;9.43;5.95;;;;;;;16.12;74.52;100613.88;5047567;28;20049;-49
2023/10/07 07:55:37;;;;;;;10.82;5.85;;;;;;;16.17;74.13;100625.09;5039112;28;20052;-47
2023/10/07 07:58:04;;;;;;;10.15;6.50;;;;;;;16.23;73.94;100633.72;5045815;28;20053;-58
2023/10/07 08:00:31;;;;;;;10.05;6.53;;;;;;;16.28;73.85;100642.34;5039011;28;20048;-47
2023/10/07 08:02:59;;;;;;;10.75;6.05;;;;;;;16.36;73.93;100643.06;5042064;28;20049;-48
2023/10/07 08:05:33;;;;;;;9.68;6.28;;;;;;;16.45;74.18;100649.91;5042242;28;20112;-46
2023/10/07 08:08:09;;;;;;;15.35;6.40;;;;;;;16.49;73.96;100642.84;5038263;28;20041;-45
2023/10/07 08:10:36;;;;;;;10.55;5.85;;;;;;;16.55;73.20;100661.06;5038458;28;20060;-50
2023/10/07 08:13:06;;;;;;;10.73;6.95;;;;;;;16.55;73.21;100661.06;5034739;28;20045;-52
2023/10/07 08:15:39;;;;;;;13.52;6.03;;;;;;;16.57;73.84;100660.13;5041550;28;20132;-51
2023/10/07 08:18:07;;;;;;;8.80;5.55;;;;;;;16.58;73.88;100655.75;5040929;28;20410;-47
2023/10/07 08:20:37;;;;;;;11.63;7.03;;;;;;;16.64;73.60;100673.09;5044561;28;20099;-46
2023/10/07 08:23:08;;;;;;;9.50;6.07;;;;;;;16.70;73.05;100666.00;5042359;28;20053;-50
2023/10/07 08:28:18;;;;;;;9.82;4.07;;;;;;;17.49;72.53;100681.06;5073576;27;20399;-50
2023/10/07 08:30:46;;;;;;;14.25;4.78;;;;;;;17.80;72.17;100669.06;5046056;28;20520;-46
2023/10/07 08:33:15;;;;;;;9.80;4.30;;;;;;;18.20;71.94;100668.13;5075892;28;20049;-51
2023/10/07 08:35:43;;;;;;;10.15;4.05;;;;;;;18.63;70.60;100670.53;5082701;28;20053;-47
2023/10/07 08:41:04;;;;;;;9.00;4.00;;;;;;;19.39;69.55;100657.09;5040467;28;20512;-49
2023/10/07 08:44:03;;;;;;;9.23;3.92;;;;;;;20.07;68.83;100663.81;5049095;28;20439;-50
2023/10/07 08:46:21;;;;;;;8.15;3.90;;;;;;;20.80;67.90;100656.06;5055278;28;20401;-48
2023/10/07 08:48:56;;;;;;;10.15;3.72;;;;;;;21.37;66.14;100655.75;5089529;28;20127;-49
2023/10/07 08:51:24;;;;;;;8.75;3.38;;;;;;;21.84;65.18;100667.16;5045401;28;20041;-48
2023/10/07 08:53:57;;;;;;;8.73;3.60;;;;;;;22.01;63.40;100666.47;5056959;28;20045;-48
2023/10/07 08:56:28;;;;;;;6.68;3.60;;;;;;;21.79;62.89;100655.94;5048076;28;20081;-52
2023/10/07 08:58:55;;;;;;;9.00;3.85;;;;;;;21.43;63.31;100649.41;5046632;28;20041;-50
2023/10/07 09:01:24;;;;;;;10.25;3.60;;;;;;;21.12;63.94;100642.66;5035637;28;20064;-50
2023/10/07 09:03:56;;;;;;;7.43;4.13;;;;;;;20.84;64.03;100638.41;5034821;28;20049;-47
2023/10/07 09:06:30;;;;;;;11.48;4.00;;;;;;;20.68;64.80;100662.63;5070208;28;20409;-50
2023/10/07 09:08:57;;;;;;;8.88;3.03;;;;;;;20.62;65.04;100642.66;5053002;28;20468;-48
2023/10/07 09:11:24;;;;;;;9.13;3.63;;;;;;;20.51;65.09;100650.94;5054517;28;20059;-49
2023/10/07 09:13:55;;;;;;;5.65;3.53;;;;;;;20.37;65.17;100664.53;5053679;28;20052;-49
2023/10/07 09:16:25;;;;;;;10.38;4.65;;;;;;;20.29;65.39;100659.56;5048668;28;20041;-47
2023/10/07 09:18:55;;;;;;;;;;;;;;;20.23;65.23;100651.84;5063761;27;20047;-46
2023/10/07 09:21:23;;;;;;;8.45;3.78;;;;;;;20.29;65.32;100667.44;5069547;27;19920;-50
2023/10/07 09:23:52;;;;;;;8.95;4.10;;;;;;;20.33;65.31;100669.97;5068374;28;20841;-48
2023/10/07 09:26:22;;;;;;;6.47;3.83;;;;;;;20.31;65.45;100677.03;5072334;28;20041;-48
2023/10/07 09:28:58;;;;;;;8.43;3.53;;;;;;;20.25;65.22;100655.31;5070678;28;20131;-47
2023/10/07 09:31:27;;;;;;;7.88;3.45;;;;;;;20.31;65.43;100663.91;5075434;27;20044;-50
2023/10/07 09:34:01;;;;;;;7.50;3.60;;;;;;;20.34;65.60;100653.28;5070749;28;20240;-48
2023/10/07 09:42:03;;;;;;;7.85;2.90;;;;;;;21.05;65.39;100682.38;5039205;28;20389;-48
2023/10/07 09:44:31;;;;;;;8.75;3.80;;;;;;;21.31;64.76;100687.63;5047174;28;20041;-52
2023/10/07 09:47:10;;;;;;;10.15;4.18;;;;;;;21.54;64.25;100663.00;5027140;28;20073;-48
2023/10/07 09:49:37;;;;;;;8.25;3.47;;;;;;;21.99;62.87;100668.34;5044218;28;20048;-52
2023/10/07 09:52:16;;;;;;;7.45;3.47;;;;;;;22.39;62.31;100670.22;5045015;28;20052;-48
2023/10/07 10:06:43;;;;;;;10.02;4.95;;;;;;;23.74;58.15;100676.56;5063901;27;20399;-48
2023/10/07 10:09:14;;;;;;;10.35;4.43;;;;;;;23.95;58.11;100682.59;5012630;28;20046;-48
2023/10/07 10:11:55;;;;;;;7.30;3.28;;;;;;;24.00;57.70;100679.72;5019152;28;20129;-49
2023/10/07 10:14:39;;;;;;;8.75;3.45;;;;;;;23.96;57.45;100686.97;5008254;28;20742;-49
2023/10/07 10:17:12;;;;;;;8.05;3.88;;;;;;;23.93;57.58;100680.94;5016831;28;20050;-47
2023/10/07 10:19:44;;;;;;;6.78;3.33;;;;;;;23.97;57.62;100666.63;5038515;28;20153;-46
2023/10/07 10:22:12;;;;;;;6.63;2.97;;;;;;;23.96;57.57;100670.22;5045258;28;20128;-49
2023/10/07 10:24:42;;;;;;;8.55;3.25;;;;;;;23.97;57.52;100650.75;5025094;28;21178;-48
2023/10/07 10:27:11;;;;;;;5.78;2.90;;;;;;;24.06;58.15;100641.53;5024229;28;20049;-49
2023/10/07 10:29:52;;;;;;;6.82;3.88;;;;;;;24.21;57.29;100651.38;5029814;28;20658;-51
2023/10/07 10:32:28;;;;;;;9.68;3.42;;;;;;;24.29;56.95;100671.28;5023847;28;20464;-51
2023/10/07 10:35:00;;;;;;;9.40;3.22;;;;;;;24.52;57.30;100643.66;5041400;28;20521;-48
2023/10/07 10:37:30;;;;;;;9.00;3.72;;;;;;;24.77;56.78;100663.53;5027618;28;20414;-50
2023/10/07 10:40:05;;;;;;;7.47;2.85;;;;;;;24.85;55.67;100679.00;5027860;28;20049;-49
2023/10/07 10:42:48;;;;;;;6.65;3.28;;;;;;;24.98;56.28;100673.94;5024328;28;20057;-47
2023/10/07 10:45:20;;;;;;;7.35;3.03;;;;;;;25.05;55.89;100685.09;5020644;28;20054;-50
2023/10/07 10:47:50;;;;;;;7.35;3.53;;;;;;;25.00;55.30;100685.34;5025777;28;20625;-49
2023/10/07 10:50:19;;;;;;;7.25;3.50;;;;;;;24.88;55.05;100678.88;5026727;28;20053;-49
2023/10/07 10:52:48;;;;;;;8.35;3.10;;;;;;;24.76;55.21;100693.63;5028390;28;20045;-50
2023/10/07 10:55:17;;;;;;;7.13;3.25;;;;;;;24.64;55.54;100689.81;5024472;28;20049;-49
2023/10/07 10:57:44;;;;;;;8.35;3.83;;;;;;;24.54;55.41;100689.44;5021864;28;20053;-50
2023/10/07 11:00:21;;;;;;;7.53;3.13;;;;;;;24.45;55.47;100703.16;5028692;28;20160;-48
2023/10/07 11:02:50;;;;;;;7.82;2.88;;;;;;;24.41;55.43;100685.72;5017712;28;20096;-49
2023/10/07 11:05:18;;;;;;;8.95;3.28;;;;;;;24.37;55.49;100696.44;5042391;28;20045;-48
2023/10/07 11:07:48;;;;;;;7.25;3.60;;;;;;;24.36;55.59;100689.44;5030632;28;20057;-49
2023/10/07 11:10:24;;;;;;;5.60;3.50;;;;;;;24.35;55.59;100693.00;5025167;28;20058;-50
2023/10/07 11:12:52;;;;;;;9.98;3.72;;;;;;;24.23;55.69;100688.34;5022063;28;20099;-49
2023/10/07 11:15:29;;;;;;;7.63;2.85;;;;;;;24.18;56.08;100685.06;5020087;28;20136;-49
2023/10/07 11:18:11;;;;;;;6.85;2.55;;;;;;;24.15;56.00;100696.69;5013714;28;20054;-47
2023/10/07 11:20:40;;;;;;;6.90;3.45;;;;;;;24.20;56.06;100693.78;5006968;28;20486;-50
2023/10/07 11:23:08;;;;;;;7.95;2.97;;;;;;;24.33;56.10;100688.72;5020934;28;20125;-51
2023/10/07 11:25:36;;;;;;;7.28;3.72;;;;;;;24.50;56.63;100690.53;5016094;28;20042;-47
2023/10/07 11:28:09;;;;;;;6.60;2.85;;;;;;;24.58;56.17;100704.22;5015317;28;20132;-48
2023/10/07 11:30:46;;;;;;;8.48;3.25;;;;;;;24.79;56.40;100674.91;5028725;28;20054;-50
2023/10/07 11:33:16;;;;;;;7.43;3.55;;;;;;;25.06;55.79;100671.72;5032178;28;20046;-51
2023/10/07 11:35:55;;;;;;;6.18;3.15;;;;;;;25.21;55.18;100663.91;5037669;28;20048;-49
2023/10/07 11:38:25;;;;;;;6.85;3.38;;;;;;;25.29;55.48;100661.69;5030556;28;20128;-49
2023/10/07 11:40:52;;;;;;;7.97;3.10;;;;;;;25.36;55.18;100657.75;5033756;28;20061;-51
2023/10/07 11:43:19;;;;;;;8.52;2.90;;;;;;;25.39;55.16;100646.97;5035461;28;20484;-47
2023/10/07 11:45:47;;;;;;;8.40;3.13;;;;;;;25.38;55.34;100650.56;5026233;28;20053;-49
2023/10/07 11:48:14;;;;;;;6.50;3.10;;;;;;;25.45;55.32;100655.53;5035906;28;20371;-49
2023/10/07 11:50:41;;;;;;;9.55;3.25;;;;;;;25.46;55.01;100662.56;5030337;28;20053;-48
2023/10/07 11:53:08;;;;;;;9.23;3.65;;;;;;;25.38;54.83;100676.22;5037987;28;20048;-52
2023/10/07 11:55:36;;;;;;;8.70;2.67;;;;;;;25.28;54.62;100674.09;5027411;28;20091;-47
2023/10/07 11:58:07;;;;;;;7.18;3.90;;;;;;;25.19;54.60;100674.56;5040594;28;20072;-49
2023/10/07 12:00:34;;;;;;;10.27;3.60;;;;;;;25.11;54.67;100661.75;5034147;28;20045;-49
2023/10/07 12:03:06;;;;;;;8.07;4.13;;;;;;;25.04;55.11;100665.69;5035686;28;20048;-49
2023/10/07 12:05:38;;;;;;;8.65;4.30;;;;;;;25.00;54.86;100661.50;5031727;28;20130;-47
2023/10/07 12:08:05;;;;;;;7.15;3.78;;;;;;;24.95;55.03;100669.69;5031099;28;20045;-50
2023/10/07 12:10:36;;;;;;;9.30;3.80;;;;;;;24.92;55.04;100669.00;5037277;28;20391;-47
2023/10/07 12:13:07;;;;;;;7.75;3.17;;;;;;;24.87;54.97;100664.81;5026973;28;20041;-49
2023/10/07 12:15:34;;;;;;;6.43;3.03;;;;;;;24.88;55.56;100663.84;5034071;28;20045;-48
2023/10/07 12:18:09;;;;;;;10.13;3.65;;;;;;;24.90;55.38;100640.78;5029404;28;20136;-47
2023/10/07 12:20:36;;;;;;;8.77;4.00;;;;;;;24.90;55.25;100632.81;5035761;28;20056;-49
2023/10/07 12:23:03;;;;;;;7.93;3.30;;;;;;;24.90;55.40;100630.16;5032764;28;20049;-50
2023/10/07 12:25:31;;;;;;;8.60;3.72;;;;;;;24.92;55.43;100642.50;5032847;28;20041;-47
2023/10/07 12:27:58;;;;;;;8.32;3.33;;;;;;;24.95;55.53;100640.53;5031616;28;20056;-50
2023/10/07 12:30:26;;;;;;;8.85;3.05;;;;;;;24.98;55.24;100652.75;5031164;28;20056;-50
2023/10/07 12:32:53;;;;;;;7.95;3.20;;;;;;;24.99;55.20;100657.13;5030844;28;20045;-50
2023/10/07 12:35:21;;;;;;;7.43;3.63;;;;;;;25.01;55.28;100652.59;5035306;28;20053;-46
2023/10/07 12:37:48;;;;;;;9.05;2.92;;;;;;;24.98;55.10;100653.63;5027054;28;20068;-52
2023/10/07 12:40:17;;;;;;;6.50;3.53;;;;;;;24.99;55.29;100662.44;5032377;28;20111;-47
2023/10/07 12:42:50;;;;;;;5.70;3.53;;;;;;;24.95;54.93;100658.25;5027665;28;20056;-48
2023/10/07 12:45:16;;;;;;;9.10;3.33;;;;;;;24.96;54.59;100657.28;5024609;28;20437;-50